createdAt,value
2022-11-24T00:00:22.643Z,2.80
2022-11-24T00:02:49.934Z,2.80
2022-11-24T00:05:17.245Z,2.80
2022-11-24T00:07:45.814Z,2.80
2022-11-24T00:10:13.069Z,2.80
2022-11-24T00:12:40.292Z,2.80
2022-11-24T00:15:07.918Z,2.90
2022-11-24T00:17:35.106Z,2.80
2022-11-24T00:20:02.318Z,2.80
2022-11-24T00:22:29.538Z,2.80
2022-11-24T00:24:58.072Z,2.80
2022-11-24T00:27:25.293Z,2.90
2022-11-24T00:29:52.508Z,2.80
2022-11-24T00:32:19.731Z,2.80
2022-11-24T00:34:47.278Z,2.80
2022-11-24T00:37:14.463Z,2.90
2022-11-24T00:39:41.707Z,2.90
2022-11-24T00:42:10.270Z,2.90
2022-11-24T00:44:37.472Z,2.90
2022-11-24T00:47:04.822Z,2.90
2022-11-24T00:49:32.251Z,2.90
2022-11-24T00:51:59.442Z,2.90
2022-11-24T00:54:26.643Z,2.90
2022-11-24T00:56:53.843Z,2.80
2022-11-24T00:59:22.402Z,2.80
2022-11-24T01:01:49.621Z,2.80
2022-11-24T01:04:16.852Z,2.90
2022-11-24T01:06:44.065Z,2.90
2022-11-24T01:09:11.935Z,2.90
2022-11-24T01:11:58.067Z,2.80
2022-11-24T01:14:27.602Z,2.80
2022-11-24T01:16:55.101Z,2.80
2022-11-24T01:19:22.759Z,2.80
2022-11-24T01:21:50.169Z,2.80
2022-11-24T01:24:17.496Z,2.70
2022-11-24T01:26:44.977Z,2.70
2022-11-24T01:29:12.484Z,2.80
2022-11-24T01:31:41.120Z,2.80
2022-11-24T01:34:08.521Z,2.80
2022-11-24T01:36:35.815Z,2.80
2022-11-24T01:39:03.075Z,2.80
2022-11-24T01:41:30.625Z,2.70
2022-11-24T01:43:58.064Z,2.70
2022-11-24T01:46:30.873Z,2.70
2022-11-24T01:49:18.162Z,2.60
2022-11-24T01:51:49.644Z,2.60
2022-11-24T01:54:22.621Z,2.60
2022-11-24T01:56:54.052Z,2.60
2022-11-24T01:59:22.198Z,2.60
2022-11-24T02:01:51.278Z,2.60
2022-11-24T02:04:24.288Z,2.60
2022-11-24T02:06:53.647Z,2.60
2022-11-24T02:09:26.331Z,2.60
2022-11-24T02:11:54.271Z,2.60
2022-11-24T02:14:23.673Z,2.60
2022-11-24T02:16:51.653Z,2.60
2022-11-24T02:19:33.636Z,2.60
2022-11-24T02:22:02.865Z,2.60
2022-11-24T02:24:37.397Z,2.70
2022-11-24T02:27:05.956Z,2.70
2022-11-24T02:29:33.521Z,2.70
2022-11-24T02:32:04.630Z,2.70
2022-11-24T02:34:32.173Z,2.70
2022-11-24T02:36:59.665Z,2.70
2022-11-24T02:39:26.920Z,2.70
2022-11-24T02:41:58.652Z,2.70
2022-11-24T02:44:32.525Z,2.70
2022-11-24T02:47:05.283Z,2.70
2022-11-24T02:49:32.734Z,2.70
2022-11-24T02:52:00.238Z,2.70
2022-11-24T02:54:27.491Z,2.60
2022-11-24T02:56:54.886Z,2.60
2022-11-24T02:59:22.246Z,2.60
2022-11-24T03:01:50.930Z,2.60
2022-11-24T03:04:18.353Z,2.60
2022-11-24T03:06:45.575Z,2.60
2022-11-24T03:09:12.843Z,2.60
2022-11-24T03:11:41.052Z,2.60
2022-11-24T03:14:08.868Z,2.60
2022-11-24T03:16:36.461Z,2.60
2022-11-24T03:19:05.312Z,2.60
2022-11-24T03:21:32.585Z,2.60
2022-11-24T03:24:00.223Z,2.50
2022-11-24T03:26:27.865Z,2.60
2022-11-24T03:28:56.199Z,2.50
2022-11-24T03:31:24.141Z,2.50
2022-11-24T03:33:51.446Z,2.50
2022-11-24T03:36:19.968Z,2.50
2022-11-24T03:38:47.177Z,2.60
2022-11-24T03:41:14.401Z,2.60
2022-11-24T03:43:43.934Z,2.60
2022-11-24T03:46:12.705Z,2.60
2022-11-24T03:48:40.272Z,2.60
2022-11-24T03:51:07.541Z,2.70
2022-11-24T03:53:36.217Z,2.60
2022-11-24T03:56:03.872Z,2.70
2022-11-24T03:58:31.578Z,2.70
2022-11-24T04:00:58.932Z,2.60
2022-11-24T04:03:26.324Z,2.70
2022-11-24T04:05:53.629Z,2.70
2022-11-24T04:08:21.227Z,2.70
2022-11-24T04:10:52.483Z,2.70
2022-11-24T04:13:21.660Z,2.70
2022-11-24T04:15:49.039Z,2.60
2022-11-24T04:18:16.364Z,2.60
2022-11-24T04:20:44.204Z,2.60
2022-11-24T04:23:11.492Z,2.60
2022-11-24T04:25:38.972Z,2.60
2022-11-24T04:28:07.964Z,2.60
2022-11-24T04:30:36.123Z,2.60
2022-11-24T04:33:03.363Z,2.60
2022-11-24T04:35:30.672Z,2.70
2022-11-24T04:38:01.553Z,2.60
2022-11-24T04:40:28.809Z,2.60
2022-11-24T04:42:56.649Z,2.60
2022-11-24T04:45:25.305Z,2.50
2022-11-24T04:47:52.627Z,2.50
2022-11-24T04:50:19.868Z,2.50
2022-11-24T04:52:47.047Z,2.50
2022-11-24T04:55:14.330Z,2.50
2022-11-24T04:57:41.607Z,2.40
2022-11-24T05:00:10.460Z,2.30
2022-11-24T05:02:39.167Z,2.30
2022-11-24T05:05:07.573Z,2.40
2022-11-24T05:07:34.888Z,2.40
2022-11-24T05:10:20.878Z,2.50
2022-11-24T05:12:54.075Z,2.40
2022-11-24T05:15:21.304Z,2.40
2022-11-24T05:17:49.842Z,2.40
2022-11-24T05:20:18.177Z,2.40
2022-11-24T05:22:45.419Z,2.40
2022-11-24T05:25:14.226Z,2.40
2022-11-24T05:27:41.471Z,2.50
2022-11-24T05:30:09.458Z,2.50
2022-11-24T05:32:36.680Z,2.50
2022-11-24T05:35:06.624Z,2.50
2022-11-24T05:37:33.868Z,2.50
2022-11-24T05:40:01.067Z,2.40
2022-11-24T05:42:46.255Z,2.40
2022-11-24T05:45:16.538Z,2.40
2022-11-24T05:47:44.034Z,2.40
2022-11-24T05:50:14.840Z,2.50
2022-11-24T05:52:42.065Z,2.40
2022-11-24T05:55:10.684Z,2.30
2022-11-24T05:57:38.002Z,2.40
2022-11-24T06:00:07.146Z,2.30
2022-11-24T06:02:40.051Z,2.30
2022-11-24T06:05:08.298Z,2.40
2022-11-24T06:07:36.920Z,2.30
2022-11-24T06:10:04.959Z,2.30
2022-11-24T06:12:32.157Z,2.30
2022-11-24T06:14:59.374Z,2.30
2022-11-24T06:17:26.648Z,2.30
2022-11-24T06:19:53.946Z,2.30
2022-11-24T06:22:21.258Z,2.30
2022-11-24T06:24:51.080Z,2.20
2022-11-24T06:27:18.904Z,2.20
2022-11-24T06:29:46.165Z,2.20
2022-11-24T06:32:13.384Z,2.20
2022-11-24T06:34:40.928Z,2.20
2022-11-24T06:37:08.504Z,2.20
2022-11-24T06:39:35.782Z,2.20
2022-11-24T06:42:04.431Z,2.20
2022-11-24T06:44:31.833Z,2.20
2022-11-24T06:46:59.326Z,2.10
2022-11-24T06:49:26.541Z,2.20
2022-11-24T06:51:54.486Z,2.20
2022-11-24T06:54:22.123Z,2.20
2022-11-24T06:56:49.343Z,2.20
2022-11-24T06:59:19.991Z,2.20
2022-11-24T07:01:47.512Z,2.30
2022-11-24T07:04:15.139Z,2.30
2022-11-24T07:06:42.673Z,2.30
2022-11-24T07:09:10.465Z,2.30
2022-11-24T07:11:37.975Z,2.30
2022-11-24T07:14:05.979Z,2.30
2022-11-24T07:16:34.708Z,2.20
2022-11-24T07:19:02.214Z,2.20
2022-11-24T07:21:30.666Z,2.30
2022-11-24T07:23:58.422Z,2.30
2022-11-24T07:26:26.297Z,2.20
2022-11-24T07:28:53.603Z,2.30
2022-11-24T07:31:24.745Z,2.30
2022-11-24T07:33:55.158Z,2.30
2022-11-24T07:36:22.897Z,2.30
2022-11-24T07:38:50.543Z,2.30
2022-11-24T07:41:22.065Z,2.30
2022-11-24T07:43:49.480Z,2.30
2022-11-24T07:46:19.468Z,2.30
2022-11-24T07:48:47.351Z,2.30
2022-11-24T07:51:16.027Z,2.40
2022-11-24T07:53:43.730Z,2.40
2022-11-24T07:56:11.126Z,2.40
2022-11-24T07:58:38.446Z,2.40
2022-11-24T08:01:11.267Z,2.40
2022-11-24T08:03:38.746Z,2.40
2022-11-24T08:08:55.004Z,2.40
2022-11-24T08:11:22.935Z,2.50
2022-11-24T08:13:50.168Z,2.50
2022-11-24T08:16:19.066Z,2.50
2022-11-24T08:18:50.196Z,2.50
2022-11-24T08:21:17.762Z,2.50
2022-11-24T08:23:44.981Z,2.50
2022-11-24T08:26:17.403Z,2.50
2022-11-24T08:28:45.446Z,2.50
2022-11-24T08:31:14.533Z,2.50
2022-11-24T08:33:42.637Z,2.50
2022-11-24T08:36:11.950Z,2.60
2022-11-24T08:38:39.818Z,2.60
2022-11-24T08:41:09.752Z,2.70
2022-11-24T08:43:38.439Z,2.70
2022-11-24T08:46:07.643Z,2.70
2022-11-24T08:48:35.537Z,2.70
2022-11-24T08:51:07.629Z,2.70
2022-11-24T08:53:34.803Z,2.70
2022-11-24T08:56:03.511Z,2.70
2022-11-24T08:58:31.693Z,2.80
2022-11-24T09:01:05.639Z,2.80
2022-11-24T09:03:33.054Z,2.80
2022-11-24T09:06:01.153Z,2.80
2022-11-24T09:08:29.430Z,2.90
2022-11-24T09:10:59.622Z,2.80
2022-11-24T09:13:26.855Z,2.80
2022-11-24T09:15:54.116Z,2.80
2022-11-24T09:18:27.501Z,2.80
2022-11-24T09:21:06.299Z,2.80
2022-11-24T09:23:33.622Z,2.90
2022-11-24T09:26:04.608Z,2.90
2022-11-24T09:28:31.836Z,2.90
2022-11-24T09:31:01.027Z,2.90
2022-11-24T09:33:31.575Z,2.90
2022-11-24T09:35:58.880Z,2.90
2022-11-24T09:38:26.357Z,2.90
2022-11-24T09:40:56.375Z,3.00
2022-11-24T09:43:35.831Z,3.00
2022-11-24T09:46:08.925Z,3.00
2022-11-24T09:48:40.706Z,3.10
2022-11-24T09:51:11.968Z,3.10
2022-11-24T09:53:46.606Z,3.10
2022-11-24T09:56:20.860Z,3.10
2022-11-24T09:58:50.641Z,3.20
2022-11-24T10:01:20.598Z,3.10
2022-11-24T10:03:51.874Z,3.10
2022-11-24T10:06:25.609Z,3.20
2022-11-24T10:09:19.006Z,3.20
2022-11-24T10:11:57.470Z,3.20
2022-11-24T10:14:41.706Z,3.30
2022-11-24T10:17:23.044Z,3.40
2022-11-24T10:19:57.836Z,3.50
2022-11-24T10:22:39.716Z,3.50
2022-11-24T10:25:18.653Z,3.60
2022-11-24T10:27:49.297Z,3.70
2022-11-24T10:30:18.939Z,3.80
2022-11-24T10:32:48.593Z,3.90
2022-11-24T10:35:19.604Z,4.00
2022-11-24T10:37:55.918Z,4.20
2022-11-24T10:40:55.921Z,4.30
2022-11-24T10:43:20.735Z,4.40
2022-11-24T10:45:48.404Z,4.50
2022-11-24T10:48:21.882Z,4.60
2022-11-24T10:50:54.341Z,4.70
2022-11-24T10:53:26.749Z,4.80
2022-11-24T10:56:02.155Z,4.90
2022-11-24T10:58:36.028Z,4.90
2022-11-24T11:01:21.111Z,5.00
2022-11-24T11:03:50.922Z,5.10
2022-11-24T11:06:24.034Z,5.10
2022-11-24T11:09:17.566Z,5.30
2022-11-24T11:11:48.258Z,5.40
2022-11-24T11:14:30.407Z,5.40
2022-11-24T11:16:58.060Z,5.50
2022-11-24T11:19:48.331Z,5.60
2022-11-24T11:22:23.793Z,5.80
2022-11-24T11:25:07.506Z,5.90
2022-11-24T11:27:34.707Z,6.00
2022-11-24T11:36:10.830Z,6.30
2022-11-24T11:38:40.300Z,6.40
2022-11-24T11:41:17.044Z,6.50
2022-11-24T11:43:46.535Z,6.50
2022-11-24T11:46:16.598Z,6.60
2022-11-24T11:48:46.572Z,6.60
2022-11-24T11:51:32.453Z,6.70
2022-11-24T11:54:07.928Z,6.70
2022-11-24T11:56:37.414Z,6.70
2022-11-24T11:59:28.140Z,6.80
2022-11-24T12:02:28.311Z,6.70
2022-11-24T12:04:59.390Z,6.80
2022-11-24T12:07:47.806Z,6.90
2022-11-24T12:10:26.005Z,6.90
2022-11-24T12:13:10.246Z,7.00
2022-11-24T12:15:41.269Z,7.30
2022-11-24T12:18:48.695Z,7.40
2022-11-24T12:21:15.439Z,7.60
2022-11-24T12:23:55.035Z,7.70
2022-11-24T12:26:33.185Z,7.90
2022-11-24T12:29:17.736Z,8.00
2022-11-24T12:31:52.408Z,8.10
2022-11-24T12:34:30.582Z,8.20
2022-11-24T12:37:11.951Z,8.40
2022-11-24T12:39:45.981Z,8.60
2022-11-24T12:42:26.660Z,8.70
2022-11-24T12:45:13.163Z,8.80
2022-11-24T12:47:57.605Z,8.90
2022-11-24T12:50:27.245Z,8.90
2022-11-24T12:53:00.823Z,8.90
2022-11-24T12:55:29.807Z,8.90
2022-11-24T12:58:10.989Z,8.80
2022-11-24T13:00:47.456Z,8.80
2022-11-24T13:03:26.931Z,8.80
2022-11-24T13:06:00.465Z,8.70
2022-11-24T13:08:29.606Z,8.60
2022-11-24T13:11:38.916Z,8.60
2022-11-24T13:14:11.886Z,8.50
2022-11-24T13:17:21.707Z,8.40
2022-11-24T13:19:40.392Z,8.30
2022-11-24T13:22:16.735Z,8.30
2022-11-24T13:24:45.108Z,8.20
2022-11-24T13:27:42.552Z,8.20
2022-11-24T13:30:48.585Z,8.10
2022-11-24T13:33:29.175Z,8.00
2022-11-24T13:36:41.268Z,8.00
2022-11-24T13:39:20.277Z,7.90
2022-11-24T13:42:08.280Z,7.80
2022-11-24T13:45:01.661Z,7.70
2022-11-24T13:47:37.915Z,7.70
2022-11-24T13:50:08.119Z,7.70
2022-11-24T13:52:42.518Z,7.60
2022-11-24T13:55:23.351Z,7.50
2022-11-24T13:57:53.169Z,7.40
2022-11-24T14:00:24.524Z,7.40
2022-11-24T14:02:54.131Z,7.30
2022-11-24T14:05:24.213Z,7.30
2022-11-24T14:07:53.141Z,7.20
2022-11-24T14:10:23.271Z,7.20
2022-11-24T14:13:23.886Z,7.20
2022-11-24T14:16:01.457Z,7.10
2022-11-24T14:18:29.216Z,7.10
2022-11-24T14:20:56.772Z,7.10
2022-11-24T14:23:24.156Z,7.00
2022-11-24T14:25:52.776Z,7.00
2022-11-24T14:28:23.412Z,6.90
2022-11-24T14:30:51.115Z,6.90
2022-11-24T14:33:20.468Z,6.90
2022-11-24T14:35:50.834Z,6.90
2022-11-24T14:38:18.090Z,6.90
2022-11-24T14:40:48.205Z,6.90
2022-11-24T14:43:23.952Z,6.80
2022-11-24T14:45:53.989Z,6.80
2022-11-24T14:48:26.444Z,6.80
2022-11-24T14:51:04.919Z,6.80
2022-11-24T14:53:32.355Z,6.70
2022-11-24T14:56:23.124Z,6.70
2022-11-24T14:58:51.022Z,6.60
2022-11-24T15:01:32.877Z,6.60
2022-11-24T15:04:46.335Z,6.60
2022-11-24T15:07:14.579Z,6.50
2022-11-24T15:09:50.711Z,6.50
2022-11-24T15:12:28.545Z,6.50
2022-11-24T15:15:00.127Z,6.40
2022-11-24T15:17:29.188Z,6.30
2022-11-24T15:20:01.199Z,6.30
2022-11-24T15:22:36.759Z,6.30
2022-11-24T15:25:19.413Z,6.30
2022-11-24T15:27:46.594Z,6.20
2022-11-24T15:30:14.116Z,6.20
2022-11-24T15:32:48.991Z,6.10
2022-11-24T15:35:17.644Z,6.10
2022-11-24T15:37:44.958Z,6.00
2022-11-24T15:40:13.091Z,6.00
2022-11-24T15:42:40.686Z,6.00
2022-11-24T15:45:09.948Z,6.00
2022-11-24T15:47:37.168Z,5.90
2022-11-24T15:50:05.479Z,5.90
2022-11-24T15:52:34.222Z,5.90
2022-11-24T15:55:01.672Z,5.80
2022-11-24T15:57:28.859Z,5.80
2022-11-24T15:59:56.040Z,5.80
2022-11-24T16:02:23.457Z,5.80
2022-11-24T16:04:51.219Z,5.70
2022-11-24T16:07:18.542Z,5.70
2022-11-24T16:09:47.128Z,5.70
2022-11-24T16:12:14.332Z,5.70
2022-11-24T16:14:41.557Z,5.70
2022-11-24T16:17:08.788Z,5.70
2022-11-24T16:19:41.673Z,5.70
2022-11-24T16:22:09.276Z,5.70
2022-11-24T16:24:36.732Z,5.70
2022-11-24T16:27:05.402Z,5.70
2022-11-24T16:29:38.058Z,5.70
2022-11-24T16:32:06.198Z,5.70
2022-11-24T16:34:33.718Z,5.70
2022-11-24T16:37:01.210Z,5.70
2022-11-24T16:39:28.401Z,5.70
2022-11-24T16:41:55.611Z,5.60
2022-11-24T16:44:24.127Z,5.60
2022-11-24T16:46:51.333Z,5.60
2022-11-24T16:49:18.822Z,5.50
2022-11-24T16:51:45.992Z,5.60
2022-11-24T16:54:13.488Z,5.60
2022-11-24T16:56:40.727Z,5.60
2022-11-24T16:59:08.104Z,5.60
2022-11-24T17:01:37.173Z,5.50
2022-11-24T17:04:09.503Z,5.50
2022-11-24T17:06:39.969Z,5.50
2022-11-24T17:09:07.280Z,5.50
2022-11-24T17:11:34.762Z,5.50
2022-11-24T17:14:02.923Z,5.50
2022-11-24T17:16:30.615Z,5.50
2022-11-24T17:18:59.746Z,5.50
2022-11-24T17:21:28.114Z,5.50
2022-11-24T17:23:56.532Z,5.50
2022-11-24T17:26:24.977Z,5.50
2022-11-24T17:28:52.650Z,5.40
2022-11-24T17:31:22.246Z,5.40
2022-11-24T17:33:50.238Z,5.40
2022-11-24T17:36:19.337Z,5.30
2022-11-24T17:38:48.956Z,5.30
2022-11-24T17:41:16.204Z,5.20
2022-11-24T17:43:43.585Z,5.20
2022-11-24T17:46:10.877Z,5.20
2022-11-24T17:48:38.174Z,5.20
2022-11-24T17:51:09.863Z,5.20
2022-11-24T17:53:39.604Z,5.20
2022-11-24T17:56:07.626Z,5.20
2022-11-24T17:58:41.336Z,5.20
2022-11-24T18:01:11.112Z,5.20
2022-11-24T18:03:39.381Z,5.20
2022-11-24T18:06:08.862Z,5.20
2022-11-24T18:08:38.920Z,5.20
2022-11-24T18:11:07.613Z,5.10
2022-11-24T18:13:55.731Z,5.10
2022-11-24T18:16:22.334Z,5.10
2022-11-24T18:19:05.069Z,5.20
2022-11-24T18:21:36.113Z,5.20
2022-11-24T18:24:05.002Z,5.20
2022-11-24T18:26:32.170Z,5.20
2022-11-24T18:28:59.870Z,5.20
2022-11-24T18:31:27.278Z,5.20
2022-11-24T18:33:54.543Z,5.20
2022-11-24T18:36:28.347Z,5.10
2022-11-24T18:38:57.482Z,5.10
2022-11-24T18:41:26.011Z,5.10
2022-11-24T18:43:53.407Z,5.10
2022-11-24T18:46:20.732Z,5.10
2022-11-24T18:48:48.071Z,5.20
2022-11-24T18:51:15.324Z,5.10
2022-11-24T18:53:43.767Z,5.20
2022-11-24T18:56:13.126Z,5.10
2022-11-24T18:58:42.427Z,5.10
2022-11-24T19:01:11.935Z,5.10
2022-11-24T19:03:46.564Z,5.20
2022-11-24T19:06:18.946Z,5.20
2022-11-24T19:08:46.752Z,5.10
2022-11-24T19:11:18.107Z,5.10
2022-11-24T19:13:47.652Z,5.10
2022-11-24T19:16:15.631Z,5.10
2022-11-24T19:18:42.921Z,5.10
2022-11-24T19:21:10.199Z,5.10
2022-11-24T19:23:37.496Z,5.10
2022-11-24T19:26:05.898Z,5.10
2022-11-24T19:28:33.517Z,5.00
2022-11-24T19:31:03.418Z,5.00
2022-11-24T19:33:31.445Z,5.00
2022-11-24T19:36:02.626Z,4.90
2022-11-24T19:38:30.557Z,4.90
2022-11-24T19:41:02.111Z,4.90
2022-11-24T19:43:29.925Z,4.90
2022-11-24T19:46:02.007Z,4.80
2022-11-24T19:48:32.976Z,4.80
2022-11-24T19:51:01.009Z,4.70
2022-11-24T19:53:28.907Z,4.70
2022-11-24T19:56:02.331Z,4.70
2022-11-24T19:58:29.579Z,4.60
2022-11-24T20:00:56.812Z,4.50
2022-11-24T20:03:25.338Z,4.50
2022-11-24T20:05:55.109Z,4.50
2022-11-24T20:08:22.334Z,4.50
2022-11-24T20:10:49.564Z,4.40
2022-11-24T20:13:16.762Z,4.40
2022-11-24T20:15:43.966Z,4.40
2022-11-24T20:18:11.209Z,4.40
2022-11-24T20:20:41.973Z,4.30
2022-11-24T20:23:09.184Z,4.30
2022-11-24T20:25:36.945Z,4.30
2022-11-24T20:28:04.553Z,4.30
2022-11-24T20:30:32.777Z,4.20
2022-11-24T20:33:00.167Z,4.20
2022-11-24T20:35:27.352Z,4.20
2022-11-24T20:37:57.285Z,4.20
2022-11-24T20:40:24.461Z,4.10
2022-11-24T20:42:51.653Z,4.10
2022-11-24T20:45:18.864Z,4.10
2022-11-24T20:47:46.045Z,4.10
2022-11-24T20:50:13.212Z,4.10
2022-11-24T20:52:40.414Z,4.10
2022-11-24T20:55:10.126Z,4.10
2022-11-24T20:57:37.343Z,4.10
2022-11-24T21:00:05.987Z,4.10
2022-11-24T21:02:33.250Z,4.00
2022-11-24T21:05:00.566Z,4.00
2022-11-24T21:07:27.808Z,4.00
2022-11-24T21:09:55.024Z,4.00
2022-11-24T21:12:23.513Z,4.00
2022-11-24T21:14:50.744Z,3.90
2022-11-24T21:17:17.943Z,3.90
2022-11-24T21:19:45.248Z,3.90
2022-11-24T21:22:12.551Z,3.90
2022-11-24T21:24:39.744Z,3.90
2022-11-24T21:27:06.954Z,3.90
2022-11-24T21:29:35.463Z,3.90
2022-11-24T21:32:02.854Z,3.90
2022-11-24T21:34:30.110Z,3.90
2022-11-24T21:36:57.315Z,3.90
2022-11-24T21:39:24.590Z,3.90
2022-11-24T21:41:51.816Z,3.90
2022-11-24T21:44:19.051Z,3.90
2022-11-24T21:46:52.644Z,3.90
2022-11-24T21:49:22.907Z,3.90
2022-11-24T21:51:55.148Z,3.90
2022-11-24T21:54:22.493Z,3.90
2022-11-24T21:56:49.702Z,3.80
2022-11-24T21:59:16.897Z,3.80
2022-11-24T22:01:44.099Z,3.80
2022-11-24T22:04:12.633Z,3.80
2022-11-24T22:06:39.821Z,3.80
2022-11-24T22:09:07.007Z,3.80
2022-11-24T22:11:34.178Z,3.80
2022-11-24T22:14:01.391Z,3.80
2022-11-24T22:16:28.846Z,3.80
2022-11-24T22:18:56.086Z,3.80
2022-11-24T22:21:29.978Z,3.70
2022-11-24T22:23:57.599Z,3.70
2022-11-24T22:26:26.090Z,3.70
2022-11-24T22:28:53.922Z,3.70
2022-11-24T22:31:23.280Z,3.80
2022-11-24T22:33:51.331Z,3.70
2022-11-24T22:36:23.549Z,3.80
2022-11-24T22:38:54.886Z,3.70
2022-11-24T22:41:22.677Z,3.70
2022-11-24T22:43:50.322Z,3.80
2022-11-24T22:46:19.057Z,3.70
2022-11-24T22:48:47.530Z,3.70
2022-11-24T22:51:16.913Z,3.70
2022-11-24T22:53:47.488Z,3.70
2022-11-24T22:56:16.585Z,3.80
2022-11-24T22:58:44.034Z,3.80
2022-11-24T23:01:13.284Z,3.80
2022-11-24T23:03:41.010Z,3.80
2022-11-24T23:06:11.614Z,3.80
2022-11-24T23:08:39.459Z,3.80
2022-11-24T23:11:08.271Z,3.80
2022-11-24T23:13:37.740Z,3.90
2022-11-24T23:16:07.275Z,3.90
2022-11-24T23:18:34.765Z,3.90
2022-11-24T23:21:06.786Z,3.90
2022-11-24T23:23:35.248Z,3.90
2022-11-24T23:26:03.673Z,3.90
2022-11-24T23:28:31.412Z,3.90
2022-11-24T23:31:04.025Z,3.90
2022-11-24T23:33:31.642Z,3.90
2022-11-24T23:36:00.312Z,4.00
2022-11-24T23:38:32.446Z,4.00
2022-11-24T23:41:01.012Z,4.00
2022-11-24T23:43:28.210Z,4.10
2022-11-24T23:45:55.509Z,4.10
2022-11-24T23:48:24.060Z,4.10
2022-11-24T23:50:51.241Z,4.10
2022-11-24T23:53:18.447Z,4.10
2022-11-24T23:55:52.979Z,4.10
2022-11-24T23:58:20.183Z,4.10
